sensor_id;sensor_type;location;lat;lon;timestamp;P1;durP1;ratioP1;P2;durP2;ratioP2
40152;SDS011;26371;56.992;23.912;2022-12-24T00:01:36;1.33;;;0.25;;
40152;SDS011;26371;56.992;23.912;2022-12-24T00:04:05;2.83;;;0.40;;
40152;SDS011;26371;56.992;23.912;2022-12-24T00:06:34;3.03;;;0.30;;
40152;SDS011;26371;56.992;23.912;2022-12-24T00:09:04;5.13;;;0.60;;
40152;SDS011;26371;56.992;23.912;2022-12-24T00:11:33;2.28;;;0.60;;
40152;SDS011;26371;56.992;23.912;2022-12-24T00:14:02;1.75;;;0.30;;
40152;SDS011;26371;56.992;23.912;2022-12-24T00:16:30;5.88;;;0.50;;
40152;SDS011;26371;56.992;23.912;2022-12-24T00:19:01;2.53;;;0.57;;
40152;SDS011;26371;56.992;23.912;2022-12-24T00:21:29;3.50;;;0.65;;
40152;SDS011;26371;56.992;23.912;2022-12-24T00:23:58;1.73;;;0.40;;
40152;SDS011;26371;56.992;23.912;2022-12-24T00:26:29;4.88;;;0.60;;
40152;SDS011;26371;56.992;23.912;2022-12-24T00:28:58;3.03;;;0.43;;
40152;SDS011;26371;56.992;23.912;2022-12-24T00:31:27;3.40;;;0.52;;
40152;SDS011;26371;56.992;23.912;2022-12-24T00:33:56;1.27;;;0.40;;
40152;SDS011;26371;56.992;23.912;2022-12-24T00:36:26;3.25;;;0.50;;
40152;SDS011;26371;56.992;23.912;2022-12-24T00:38:55;1.48;;;0.40;;
40152;SDS011;26371;56.992;23.912;2022-12-24T00:41:23;1.20;;;0.50;;
40152;SDS011;26371;56.992;23.912;2022-12-24T00:43:55;2.92;;;0.32;;
40152;SDS011;26371;56.992;23.912;2022-12-24T00:46:27;3.17;;;0.70;;
40152;SDS011;26371;56.992;23.912;2022-12-24T00:48:58;2.25;;;0.70;;
40152;SDS011;26371;56.992;23.912;2022-12-24T00:51:29;3.25;;;0.40;;
40152;SDS011;26371;56.992;23.912;2022-12-24T00:53:58;3.38;;;0.47;;
40152;SDS011;26371;56.992;23.912;2022-12-24T00:56:26;2.58;;;0.40;;
40152;SDS011;26371;56.992;23.912;2022-12-24T00:58:55;2.60;;;0.50;;
40152;SDS011;26371;56.992;23.912;2022-12-24T01:01:24;4.50;;;0.70;;
40152;SDS011;26371;56.992;23.912;2022-12-24T01:03:53;1.25;;;0.80;;
40152;SDS011;26371;56.992;23.912;2022-12-24T01:06:44;3.65;;;0.60;;
40152;SDS011;26371;56.992;23.912;2022-12-24T01:09:12;3.03;;;0.70;;
40152;SDS011;26371;56.992;23.912;2022-12-24T01:11:42;3.95;;;0.57;;
40152;SDS011;26371;56.992;23.912;2022-12-24T01:14:11;2.65;;;0.55;;
40152;SDS011;26371;56.992;23.912;2022-12-24T01:16:40;4.47;;;0.50;;
40152;SDS011;26371;56.992;23.912;2022-12-24T01:19:10;3.65;;;0.40;;
40152;SDS011;26371;56.992;23.912;2022-12-24T01:21:39;2.72;;;0.50;;
40152;SDS011;26371;56.992;23.912;2022-12-24T01:24:10;2.70;;;0.63;;
40152;SDS011;26371;56.992;23.912;2022-12-24T01:26:42;1.02;;;0.30;;
40152;SDS011;26371;56.992;23.912;2022-12-24T01:29:10;2.58;;;0.47;;
40152;SDS011;26371;56.992;23.912;2022-12-24T01:31:39;1.65;;;0.40;;
40152;SDS011;26371;56.992;23.912;2022-12-24T01:34:08;4.33;;;0.63;;
40152;SDS011;26371;56.992;23.912;2022-12-24T01:36:37;2.05;;;0.45;;
40152;SDS011;26371;56.992;23.912;2022-12-24T01:39:05;4.63;;;0.50;;
40152;SDS011;26371;56.992;23.912;2022-12-24T01:41:36;0.70;;;0.28;;
40152;SDS011;26371;56.992;23.912;2022-12-24T01:44:23;1.63;;;0.30;;
40152;SDS011;26371;56.992;23.912;2022-12-24T01:47:03;2.42;;;0.40;;
40152;SDS011;26371;56.992;23.912;2022-12-24T01:49:36;1.13;;;0.30;;
40152;SDS011;26371;56.992;23.912;2022-12-24T01:52:10;3.85;;;0.50;;
40152;SDS011;26371;56.992;23.912;2022-12-24T01:54:42;2.85;;;0.45;;
40152;SDS011;26371;56.992;23.912;2022-12-24T01:57:17;2.65;;;0.60;;
40152;SDS011;26371;56.992;23.912;2022-12-24T01:59:50;2.35;;;0.40;;
40152;SDS011;26371;56.992;23.912;2022-12-24T02:02:23;1.50;;;0.30;;
40152;SDS011;26371;56.992;23.912;2022-12-24T02:04:54;3.22;;;0.38;;
40152;SDS011;26371;56.992;23.912;2022-12-24T02:07:28;2.92;;;0.50;;
40152;SDS011;26371;56.992;23.912;2022-12-24T02:09:58;3.72;;;1.08;;
40152;SDS011;26371;56.992;23.912;2022-12-24T02:12:30;3.17;;;0.40;;
40152;SDS011;26371;56.992;23.912;2022-12-24T02:15:02;0.98;;;0.40;;
40152;SDS011;26371;56.992;23.912;2022-12-24T02:17:32;7.07;;;0.80;;
40152;SDS011;26371;56.992;23.912;2022-12-24T02:20:11;5.45;;;0.50;;
40152;SDS011;26371;56.992;23.912;2022-12-24T02:23:09;2.15;;;0.30;;
40152;SDS011;26371;56.992;23.912;2022-12-24T02:26:02;2.60;;;0.40;;
40152;SDS011;26371;56.992;23.912;2022-12-24T02:28:51;5.32;;;0.47;;
40152;SDS011;26371;56.992;23.912;2022-12-24T02:31:39;3.15;;;0.45;;
40152;SDS011;26371;56.992;23.912;2022-12-24T02:34:12;1.70;;;0.50;;
40152;SDS011;26371;56.992;23.912;2022-12-24T02:36:45;3.38;;;0.50;;
40152;SDS011;26371;56.992;23.912;2022-12-24T02:39:21;3.72;;;0.85;;
40152;SDS011;26371;56.992;23.912;2022-12-24T02:41:55;3.10;;;0.63;;
40152;SDS011;26371;56.992;23.912;2022-12-24T02:44:36;1.67;;;0.50;;
40152;SDS011;26371;56.992;23.912;2022-12-24T02:47:09;2.28;;;0.60;;
40152;SDS011;26371;56.992;23.912;2022-12-24T02:49:41;4.05;;;0.73;;
40152;SDS011;26371;56.992;23.912;2022-12-24T02:52:26;2.53;;;0.47;;
40152;SDS011;26371;56.992;23.912;2022-12-24T02:54:56;3.42;;;0.40;;
40152;SDS011;26371;56.992;23.912;2022-12-24T02:57:27;1.80;;;0.40;;
40152;SDS011;26371;56.992;23.912;2022-12-24T03:00:03;6.50;;;0.60;;
40152;SDS011;26371;56.992;23.912;2022-12-24T03:05:41;4.30;;;0.57;;
40152;SDS011;26371;56.992;23.912;2022-12-24T03:08:15;3.38;;;0.50;;
40152;SDS011;26371;56.992;23.912;2022-12-24T03:10:54;7.40;;;0.70;;
40152;SDS011;26371;56.992;23.912;2022-12-24T03:13:27;1.90;;;0.50;;
40152;SDS011;26371;56.992;23.912;2022-12-24T03:15:56;4.60;;;0.68;;
40152;SDS011;26371;56.992;23.912;2022-12-24T03:18:26;3.13;;;0.85;;
40152;SDS011;26371;56.992;23.912;2022-12-24T03:20:59;3.55;;;0.60;;
40152;SDS011;26371;56.992;23.912;2022-12-24T03:23:32;5.70;;;0.57;;
40152;SDS011;26371;56.992;23.912;2022-12-24T03:26:03;4.57;;;0.50;;
40152;SDS011;26371;56.992;23.912;2022-12-24T03:28:34;5.18;;;0.50;;
40152;SDS011;26371;56.992;23.912;2022-12-24T03:31:05;4.03;;;0.65;;
40152;SDS011;26371;56.992;23.912;2022-12-24T03:33:37;2.35;;;0.40;;
40152;SDS011;26371;56.992;23.912;2022-12-24T03:36:06;2.38;;;0.60;;
40152;SDS011;26371;56.992;23.912;2022-12-24T03:38:36;4.00;;;0.55;;
40152;SDS011;26371;56.992;23.912;2022-12-24T03:41:05;2.05;;;0.35;;
40152;SDS011;26371;56.992;23.912;2022-12-24T03:43:34;1.42;;;0.47;;
40152;SDS011;26371;56.992;23.912;2022-12-24T03:46:04;3.95;;;0.50;;
40152;SDS011;26371;56.992;23.912;2022-12-24T03:48:35;3.13;;;0.40;;
40152;SDS011;26371;56.992;23.912;2022-12-24T03:51:05;3.70;;;0.60;;
40152;SDS011;26371;56.992;23.912;2022-12-24T03:56:13;2.67;;;0.60;;
40152;SDS011;26371;56.992;23.912;2022-12-24T03:58:42;3.65;;;0.57;;
40152;SDS011;26371;56.992;23.912;2022-12-24T04:01:10;3.47;;;0.45;;
40152;SDS011;26371;56.992;23.912;2022-12-24T04:03:41;6.70;;;0.57;;
40152;SDS011;26371;56.992;23.912;2022-12-24T04:06:10;2.80;;;0.50;;
40152;SDS011;26371;56.992;23.912;2022-12-24T04:08:41;4.15;;;0.80;;
40152;SDS011;26371;56.992;23.912;2022-12-24T04:11:11;6.55;;;1.02;;
40152;SDS011;26371;56.992;23.912;2022-12-24T04:13:45;5.25;;;0.50;;
40152;SDS011;26371;56.992;23.912;2022-12-24T04:16:15;2.50;;;0.52;;
40152;SDS011;26371;56.992;23.912;2022-12-24T04:18:49;5.32;;;0.82;;
40152;SDS011;26371;56.992;23.912;2022-12-24T04:21:17;6.20;;;0.57;;
40152;SDS011;26371;56.992;23.912;2022-12-24T04:23:46;6.40;;;0.65;;
40152;SDS011;26371;56.992;23.912;2022-12-24T04:26:15;3.37;;;0.40;;
40152;SDS011;26371;56.992;23.912;2022-12-24T04:28:46;5.13;;;0.95;;
40152;SDS011;26371;56.992;23.912;2022-12-24T04:31:15;3.03;;;0.50;;
40152;SDS011;26371;56.992;23.912;2022-12-24T04:33:45;8.27;;;1.45;;
40152;SDS011;26371;56.992;23.912;2022-12-24T04:36:15;2.57;;;0.93;;
40152;SDS011;26371;56.992;23.912;2022-12-24T04:38:45;3.90;;;0.88;;
40152;SDS011;26371;56.992;23.912;2022-12-24T04:41:15;6.03;;;0.68;;
40152;SDS011;26371;56.992;23.912;2022-12-24T04:43:53;5.88;;;0.85;;
40152;SDS011;26371;56.992;23.912;2022-12-24T04:46:23;6.32;;;0.77;;
40152;SDS011;26371;56.992;23.912;2022-12-24T04:48:53;4.78;;;0.88;;
40152;SDS011;26371;56.992;23.912;2022-12-24T04:51:24;4.22;;;0.80;;
40152;SDS011;26371;56.992;23.912;2022-12-24T04:53:53;7.75;;;1.10;;
40152;SDS011;26371;56.992;23.912;2022-12-24T04:56:23;8.73;;;0.73;;
40152;SDS011;26371;56.992;23.912;2022-12-24T04:58:53;7.10;;;0.68;;
40152;SDS011;26371;56.992;23.912;2022-12-24T05:01:23;9.98;;;1.00;;
40152;SDS011;26371;56.992;23.912;2022-12-24T05:03:56;6.03;;;0.70;;
40152;SDS011;26371;56.992;23.912;2022-12-24T05:06:28;5.03;;;0.70;;
40152;SDS011;26371;56.992;23.912;2022-12-24T05:08:58;2.95;;;0.60;;
40152;SDS011;26371;56.992;23.912;2022-12-24T05:11:28;7.18;;;0.70;;
40152;SDS011;26371;56.992;23.912;2022-12-24T05:13:57;3.65;;;0.55;;
40152;SDS011;26371;56.992;23.912;2022-12-24T05:16:30;7.05;;;0.90;;
40152;SDS011;26371;56.992;23.912;2022-12-24T05:19:01;2.80;;;0.45;;
40152;SDS011;26371;56.992;23.912;2022-12-24T05:21:31;3.45;;;0.65;;
40152;SDS011;26371;56.992;23.912;2022-12-24T05:24:00;5.88;;;0.90;;
40152;SDS011;26371;56.992;23.912;2022-12-24T05:26:47;7.57;;;1.83;;
40152;SDS011;26371;56.992;23.912;2022-12-24T05:29:19;3.95;;;0.50;;
40152;SDS011;26371;56.992;23.912;2022-12-24T05:31:48;7.45;;;0.93;;
40152;SDS011;26371;56.992;23.912;2022-12-24T05:34:17;7.13;;;0.60;;
40152;SDS011;26371;56.992;23.912;2022-12-24T05:36:48;7.43;;;0.85;;
40152;SDS011;26371;56.992;23.912;2022-12-24T05:39:17;4.47;;;0.70;;
40152;SDS011;26371;56.992;23.912;2022-12-24T05:41:47;5.32;;;0.90;;
40152;SDS011;26371;56.992;23.912;2022-12-24T05:44:19;8.38;;;0.85;;
40152;SDS011;26371;56.992;23.912;2022-12-24T05:46:48;6.95;;;0.80;;
40152;SDS011;26371;56.992;23.912;2022-12-24T05:49:19;4.50;;;1.02;;
40152;SDS011;26371;56.992;23.912;2022-12-24T05:51:51;5.43;;;0.77;;
40152;SDS011;26371;56.992;23.912;2022-12-24T05:54:20;5.78;;;0.98;;
40152;SDS011;26371;56.992;23.912;2022-12-24T05:56:52;8.80;;;1.00;;
40152;SDS011;26371;56.992;23.912;2022-12-24T05:59:27;9.60;;;0.95;;
40152;SDS011;26371;56.992;23.912;2022-12-24T06:01:58;6.50;;;1.27;;
40152;SDS011;26371;56.992;23.912;2022-12-24T06:04:27;6.22;;;0.70;;
40152;SDS011;26371;56.992;23.912;2022-12-24T06:07:00;3.35;;;0.70;;
40152;SDS011;26371;56.992;23.912;2022-12-24T06:09:29;3.10;;;0.52;;
40152;SDS011;26371;56.992;23.912;2022-12-24T06:11:58;6.03;;;0.95;;
40152;SDS011;26371;56.992;23.912;2022-12-24T06:14:26;4.47;;;0.77;;
40152;SDS011;26371;56.992;23.912;2022-12-24T06:16:57;4.60;;;0.60;;
40152;SDS011;26371;56.992;23.912;2022-12-24T06:19:26;3.55;;;0.80;;
40152;SDS011;26371;56.992;23.912;2022-12-24T06:21:55;5.70;;;1.00;;
40152;SDS011;26371;56.992;23.912;2022-12-24T06:24:25;4.25;;;1.10;;
40152;SDS011;26371;56.992;23.912;2022-12-24T06:26:53;7.32;;;1.50;;
40152;SDS011;26371;56.992;23.912;2022-12-24T06:29:22;6.93;;;1.80;;
40152;SDS011;26371;56.992;23.912;2022-12-24T06:31:53;10.70;;;1.75;;
40152;SDS011;26371;56.992;23.912;2022-12-24T06:34:22;6.10;;;1.60;;
40152;SDS011;26371;56.992;23.912;2022-12-24T06:36:50;5.85;;;1.83;;
40152;SDS011;26371;56.992;23.912;2022-12-24T06:39:19;6.15;;;1.50;;
40152;SDS011;26371;56.992;23.912;2022-12-24T06:41:49;6.68;;;1.60;;
40152;SDS011;26371;56.992;23.912;2022-12-24T06:44:18;6.50;;;1.70;;
40152;SDS011;26371;56.992;23.912;2022-12-24T06:46:47;17.55;;;7.32;;
40152;SDS011;26371;56.992;23.912;2022-12-24T06:49:16;42.37;;;17.93;;
40152;SDS011;26371;56.992;23.912;2022-12-24T06:51:45;25.10;;;10.93;;
40152;SDS011;26371;56.992;23.912;2022-12-24T06:54:13;27.83;;;11.45;;
40152;SDS011;26371;56.992;23.912;2022-12-24T06:56:42;29.17;;;13.13;;
40152;SDS011;26371;56.992;23.912;2022-12-24T06:59:12;19.95;;;8.73;;
40152;SDS011;26371;56.992;23.912;2022-12-24T07:01:40;15.38;;;5.13;;
40152;SDS011;26371;56.992;23.912;2022-12-24T07:04:09;12.50;;;4.03;;
40152;SDS011;26371;56.992;23.912;2022-12-24T07:06:45;11.20;;;4.00;;
40152;SDS011;26371;56.992;23.912;2022-12-24T07:09:14;13.55;;;5.28;;
40152;SDS011;26371;56.992;23.912;2022-12-24T07:11:43;12.52;;;6.10;;
40152;SDS011;26371;56.992;23.912;2022-12-24T07:14:16;12.80;;;5.40;;
40152;SDS011;26371;56.992;23.912;2022-12-24T07:16:48;12.35;;;4.82;;
40152;SDS011;26371;56.992;23.912;2022-12-24T07:19:24;11.05;;;4.43;;
40152;SDS011;26371;56.992;23.912;2022-12-24T07:21:53;14.35;;;3.30;;
40152;SDS011;26371;56.992;23.912;2022-12-24T07:24:22;9.77;;;3.20;;
40152;SDS011;26371;56.992;23.912;2022-12-24T07:26:50;8.50;;;2.88;;
40152;SDS011;26371;56.992;23.912;2022-12-24T07:29:20;10.73;;;3.15;;
40152;SDS011;26371;56.992;23.912;2022-12-24T07:31:49;10.18;;;3.10;;
40152;SDS011;26371;56.992;23.912;2022-12-24T07:34:18;10.60;;;2.73;;
40152;SDS011;26371;56.992;23.912;2022-12-24T07:36:47;13.05;;;3.05;;
40152;SDS011;26371;56.992;23.912;2022-12-24T07:39:18;11.32;;;3.15;;
40152;SDS011;26371;56.992;23.912;2022-12-24T07:41:47;12.10;;;3.05;;
40152;SDS011;26371;56.992;23.912;2022-12-24T07:44:16;11.77;;;3.23;;
40152;SDS011;26371;56.992;23.912;2022-12-24T07:46:46;11.20;;;3.05;;
40152;SDS011;26371;56.992;23.912;2022-12-24T07:49:15;39.17;;;18.17;;
40152;SDS011;26371;56.992;23.912;2022-12-24T07:51:43;12.18;;;3.85;;
40152;SDS011;26371;56.992;23.912;2022-12-24T07:54:13;8.45;;;3.00;;
40152;SDS011;26371;56.992;23.912;2022-12-24T07:59:13;9.75;;;2.53;;
40152;SDS011;26371;56.992;23.912;2022-12-24T08:01:42;8.23;;;2.38;;
40152;SDS011;26371;56.992;23.912;2022-12-24T08:04:12;7.85;;;2.70;;
40152;SDS011;26371;56.992;23.912;2022-12-24T08:06:41;10.02;;;2.55;;
40152;SDS011;26371;56.992;23.912;2022-12-24T08:09:10;9.00;;;2.60;;
40152;SDS011;26371;56.992;23.912;2022-12-24T08:11:39;9.25;;;2.90;;
40152;SDS011;26371;56.992;23.912;2022-12-24T08:14:17;11.23;;;2.90;;
40152;SDS011;26371;56.992;23.912;2022-12-24T08:16:46;9.57;;;3.10;;
40152;SDS011;26371;56.992;23.912;2022-12-24T08:19:16;8.13;;;2.85;;
40152;SDS011;26371;56.992;23.912;2022-12-24T08:21:45;7.78;;;2.83;;
40152;SDS011;26371;56.992;23.912;2022-12-24T08:24:14;9.25;;;3.03;;
40152;SDS011;26371;56.992;23.912;2022-12-24T08:26:42;8.98;;;2.35;;
40152;SDS011;26371;56.992;23.912;2022-12-24T08:29:11;10.00;;;2.63;;
40152;SDS011;26371;56.992;23.912;2022-12-24T08:31:40;8.77;;;3.10;;
40152;SDS011;26371;56.992;23.912;2022-12-24T08:34:10;8.93;;;2.67;;
40152;SDS011;26371;56.992;23.912;2022-12-24T08:36:46;8.20;;;2.95;;
40152;SDS011;26371;56.992;23.912;2022-12-24T08:39:15;7.72;;;3.33;;
40152;SDS011;26371;56.992;23.912;2022-12-24T08:41:44;11.23;;;3.03;;
40152;SDS011;26371;56.992;23.912;2022-12-24T08:44:13;9.40;;;3.40;;
40152;SDS011;26371;56.992;23.912;2022-12-24T08:46:42;10.38;;;2.97;;
40152;SDS011;26371;56.992;23.912;2022-12-24T08:49:11;10.00;;;3.38;;
40152;SDS011;26371;56.992;23.912;2022-12-24T08:51:39;9.10;;;3.50;;
40152;SDS011;26371;56.992;23.912;2022-12-24T08:54:10;19.95;;;8.65;;
40152;SDS011;26371;56.992;23.912;2022-12-24T08:56:39;45.35;;;19.73;;
40152;SDS011;26371;56.992;23.912;2022-12-24T08:59:09;44.33;;;20.02;;
40152;SDS011;26371;56.992;23.912;2022-12-24T09:01:38;40.40;;;16.35;;
40152;SDS011;26371;56.992;23.912;2022-12-24T09:04:07;28.20;;;11.20;;
40152;SDS011;26371;56.992;23.912;2022-12-24T09:06:36;23.83;;;10.73;;
40152;SDS011;26371;56.992;23.912;2022-12-24T09:09:05;26.73;;;10.50;;
40152;SDS011;26371;56.992;23.912;2022-12-24T09:11:35;24.63;;;11.02;;
40152;SDS011;26371;56.992;23.912;2022-12-24T09:14:04;30.50;;;12.73;;
40152;SDS011;26371;56.992;23.912;2022-12-24T09:16:33;31.58;;;13.55;;
40152;SDS011;26371;56.992;23.912;2022-12-24T09:19:02;34.97;;;15.33;;
40152;SDS011;26371;56.992;23.912;2022-12-24T09:21:30;39.97;;;14.82;;
40152;SDS011;26371;56.992;23.912;2022-12-24T09:24:02;30.52;;;13.63;;
40152;SDS011;26371;56.992;23.912;2022-12-24T09:26:32;38.58;;;16.25;;
40152;SDS011;26371;56.992;23.912;2022-12-24T09:29:03;35.30;;;15.70;;
40152;SDS011;26371;56.992;23.912;2022-12-24T09:31:32;35.85;;;15.45;;
40152;SDS011;26371;56.992;23.912;2022-12-24T09:34:01;37.08;;;15.52;;
40152;SDS011;26371;56.992;23.912;2022-12-24T09:36:30;35.38;;;14.38;;
40152;SDS011;26371;56.992;23.912;2022-12-24T09:38:58;37.50;;;14.27;;
40152;SDS011;26371;56.992;23.912;2022-12-24T09:41:30;31.33;;;13.33;;
40152;SDS011;26371;56.992;23.912;2022-12-24T09:44:13;43.47;;;17.30;;
40152;SDS011;26371;56.992;23.912;2022-12-24T09:46:51;42.28;;;16.67;;
40152;SDS011;26371;56.992;23.912;2022-12-24T09:49:25;42.47;;;15.73;;
40152;SDS011;26371;56.992;23.912;2022-12-24T09:52:19;43.42;;;15.10;;
40152;SDS011;26371;56.992;23.912;2022-12-24T09:54:57;39.45;;;14.35;;
40152;SDS011;26371;56.992;23.912;2022-12-24T09:57:35;38.85;;;13.95;;
40152;SDS011;26371;56.992;23.912;2022-12-24T10:00:15;35.90;;;12.35;;
40152;SDS011;26371;56.992;23.912;2022-12-24T10:02:50;34.03;;;12.52;;
40152;SDS011;26371;56.992;23.912;2022-12-24T10:05:22;29.15;;;9.98;;
40152;SDS011;26371;56.992;23.912;2022-12-24T10:08:01;25.60;;;9.13;;
40152;SDS011;26371;56.992;23.912;2022-12-24T10:10:40;18.83;;;7.80;;
40152;SDS011;26371;56.992;23.912;2022-12-24T10:13:18;20.52;;;7.47;;
40152;SDS011;26371;56.992;23.912;2022-12-24T10:16:05;21.05;;;7.07;;
40152;SDS011;26371;56.992;23.912;2022-12-24T10:18:41;15.98;;;5.63;;
40152;SDS011;26371;56.992;23.912;2022-12-24T10:21:23;22.63;;;7.05;;
40152;SDS011;26371;56.992;23.912;2022-12-24T10:24:03;11.95;;;4.60;;
40152;SDS011;26371;56.992;23.912;2022-12-24T10:26:42;16.10;;;6.10;;
40152;SDS011;26371;56.992;23.912;2022-12-24T10:29:13;17.95;;;5.57;;
40152;SDS011;26371;56.992;23.912;2022-12-24T10:31:49;13.65;;;4.65;;
40152;SDS011;26371;56.992;23.912;2022-12-24T10:34:23;16.05;;;5.18;;
40152;SDS011;26371;56.992;23.912;2022-12-24T10:36:59;15.93;;;4.72;;
40152;SDS011;26371;56.992;23.912;2022-12-24T10:39:30;11.73;;;4.22;;
40152;SDS011;26371;56.992;23.912;2022-12-24T10:41:59;10.30;;;3.78;;
40152;SDS011;26371;56.992;23.912;2022-12-24T10:44:38;11.07;;;4.25;;
40152;SDS011;26371;56.992;23.912;2022-12-24T10:47:09;8.50;;;2.63;;
40152;SDS011;26371;56.992;23.912;2022-12-24T10:49:42;10.05;;;3.53;;
40152;SDS011;26371;56.992;23.912;2022-12-24T10:52:15;13.23;;;3.03;;
40152;SDS011;26371;56.992;23.912;2022-12-24T10:55:04;11.05;;;3.13;;
40152;SDS011;26371;56.992;23.912;2022-12-24T11:00:06;8.57;;;3.15;;
40152;SDS011;26371;56.992;23.912;2022-12-24T11:02:47;10.25;;;3.03;;
40152;SDS011;26371;56.992;23.912;2022-12-24T11:05:26;10.88;;;2.95;;
40152;SDS011;26371;56.992;23.912;2022-12-24T11:07:59;8.20;;;3.30;;
40152;SDS011;26371;56.992;23.912;2022-12-24T11:10:29;7.90;;;2.65;;
40152;SDS011;26371;56.992;23.912;2022-12-24T11:12:58;10.52;;;3.35;;
40152;SDS011;26371;56.992;23.912;2022-12-24T11:15:47;6.75;;;2.40;;
40152;SDS011;26371;56.992;23.912;2022-12-24T11:18:20;9.00;;;3.13;;
40152;SDS011;26371;56.992;23.912;2022-12-24T11:20:50;10.75;;;2.88;;
40152;SDS011;26371;56.992;23.912;2022-12-24T11:23:20;14.18;;;3.92;;
40152;SDS011;26371;56.992;23.912;2022-12-24T11:25:50;10.85;;;3.35;;
40152;SDS011;26371;56.992;23.912;2022-12-24T11:28:20;10.07;;;3.67;;
40152;SDS011;26371;56.992;23.912;2022-12-24T11:30:58;7.68;;;2.95;;
40152;SDS011;26371;56.992;23.912;2022-12-24T11:33:45;6.95;;;1.25;;
40152;SDS011;26371;56.992;23.912;2022-12-24T11:36:15;7.47;;;1.70;;
40152;SDS011;26371;56.992;23.912;2022-12-24T11:38:50;7.75;;;2.13;;
40152;SDS011;26371;56.992;23.912;2022-12-24T11:41:20;10.88;;;2.72;;
40152;SDS011;26371;56.992;23.912;2022-12-24T11:43:51;10.88;;;2.65;;
40152;SDS011;26371;56.992;23.912;2022-12-24T11:46:36;7.28;;;1.90;;
40152;SDS011;26371;56.992;23.912;2022-12-24T11:49:14;7.18;;;2.00;;
40152;SDS011;26371;56.992;23.912;2022-12-24T11:52:00;6.10;;;1.50;;
40152;SDS011;26371;56.992;23.912;2022-12-24T11:54:59;7.43;;;1.60;;
40152;SDS011;26371;56.992;23.912;2022-12-24T11:57:50;4.72;;;1.70;;
40152;SDS011;26371;56.992;23.912;2022-12-24T12:00:24;4.82;;;1.17;;
40152;SDS011;26371;56.992;23.912;2022-12-24T12:02:54;6.65;;;2.20;;
40152;SDS011;26371;56.992;23.912;2022-12-24T12:05:28;5.20;;;1.67;;
40152;SDS011;26371;56.992;23.912;2022-12-24T12:08:03;6.18;;;1.90;;
40152;SDS011;26371;56.992;23.912;2022-12-24T12:10:38;6.72;;;1.52;;
40152;SDS011;26371;56.992;23.912;2022-12-24T12:13:10;6.22;;;1.50;;
40152;SDS011;26371;56.992;23.912;2022-12-24T12:15:43;5.50;;;1.30;;
40152;SDS011;26371;56.992;23.912;2022-12-24T12:18:15;5.22;;;1.30;;
40152;SDS011;26371;56.992;23.912;2022-12-24T12:20:50;5.93;;;1.80;;
40152;SDS011;26371;56.992;23.912;2022-12-24T12:23:23;7.10;;;1.63;;
40152;SDS011;26371;56.992;23.912;2022-12-24T12:25:57;7.85;;;1.60;;
40152;SDS011;26371;56.992;23.912;2022-12-24T12:28:27;4.95;;;1.40;;
40152;SDS011;26371;56.992;23.912;2022-12-24T12:31:04;5.13;;;2.03;;
40152;SDS011;26371;56.992;23.912;2022-12-24T12:33:43;12.80;;;7.00;;
40152;SDS011;26371;56.992;23.912;2022-12-24T12:36:19;12.95;;;4.80;;
40152;SDS011;26371;56.992;23.912;2022-12-24T12:38:51;20.98;;;9.77;;
40152;SDS011;26371;56.992;23.912;2022-12-24T12:41:23;15.02;;;6.60;;
40152;SDS011;26371;56.992;23.912;2022-12-24T12:44:02;12.13;;;5.82;;
40152;SDS011;26371;56.992;23.912;2022-12-24T12:46:53;12.10;;;5.30;;
40152;SDS011;26371;56.992;23.912;2022-12-24T12:49:32;12.55;;;4.63;;
40152;SDS011;26371;56.992;23.912;2022-12-24T12:52:14;16.00;;;6.43;;
40152;SDS011;26371;56.992;23.912;2022-12-24T12:54:54;17.23;;;5.97;;
40152;SDS011;26371;56.992;23.912;2022-12-24T12:57:33;12.82;;;4.80;;
40152;SDS011;26371;56.992;23.912;2022-12-24T13:00:08;13.45;;;4.75;;
40152;SDS011;26371;56.992;23.912;2022-12-24T13:02:58;15.10;;;5.05;;
40152;SDS011;26371;56.992;23.912;2022-12-24T13:05:57;14.18;;;5.05;;
40152;SDS011;26371;56.992;23.912;2022-12-24T13:09:04;13.32;;;5.50;;
40152;SDS011;26371;56.992;23.912;2022-12-24T13:11:53;11.50;;;4.95;;
40152;SDS011;26371;56.992;23.912;2022-12-24T13:14:43;9.60;;;4.78;;
40152;SDS011;26371;56.992;23.912;2022-12-24T13:20:26;11.55;;;4.43;;
40152;SDS011;26371;56.992;23.912;2022-12-24T13:22:58;15.20;;;5.53;;
40152;SDS011;26371;56.992;23.912;2022-12-24T13:25:33;14.65;;;5.15;;
40152;SDS011;26371;56.992;23.912;2022-12-24T13:33:51;12.80;;;5.32;;
40152;SDS011;26371;56.992;23.912;2022-12-24T13:36:21;10.75;;;4.78;;
40152;SDS011;26371;56.992;23.912;2022-12-24T13:38:50;13.60;;;5.00;;
40152;SDS011;26371;56.992;23.912;2022-12-24T13:44:26;12.48;;;4.65;;
40152;SDS011;26371;56.992;23.912;2022-12-24T13:47:02;12.23;;;4.60;;
40152;SDS011;26371;56.992;23.912;2022-12-24T13:49:44;10.10;;;4.05;;
40152;SDS011;26371;56.992;23.912;2022-12-24T13:52:20;8.98;;;4.13;;
40152;SDS011;26371;56.992;23.912;2022-12-24T13:55:01;11.07;;;3.88;;
40152;SDS011;26371;56.992;23.912;2022-12-24T13:57:43;10.43;;;4.15;;
40152;SDS011;26371;56.992;23.912;2022-12-24T14:00:32;13.70;;;4.00;;
40152;SDS011;26371;56.992;23.912;2022-12-24T14:03:06;13.27;;;4.53;;
40152;SDS011;26371;56.992;23.912;2022-12-24T14:05:49;12.35;;;3.90;;
40152;SDS011;26371;56.992;23.912;2022-12-24T14:08:28;10.55;;;3.90;;
40152;SDS011;26371;56.992;23.912;2022-12-24T14:16:43;13.45;;;4.65;;
40152;SDS011;26371;56.992;23.912;2022-12-24T14:19:17;11.93;;;4.40;;
40152;SDS011;26371;56.992;23.912;2022-12-24T14:21:51;10.80;;;4.35;;
40152;SDS011;26371;56.992;23.912;2022-12-24T14:24:24;12.30;;;4.53;;
40152;SDS011;26371;56.992;23.912;2022-12-24T14:26:55;13.23;;;4.72;;
40152;SDS011;26371;56.992;23.912;2022-12-24T14:29:28;16.45;;;4.88;;
40152;SDS011;26371;56.992;23.912;2022-12-24T14:32:00;10.40;;;4.20;;
40152;SDS011;26371;56.992;23.912;2022-12-24T14:37:07;13.25;;;4.78;;
40152;SDS011;26371;56.992;23.912;2022-12-24T14:39:40;10.38;;;4.60;;
40152;SDS011;26371;56.992;23.912;2022-12-24T14:42:17;12.10;;;4.80;;
40152;SDS011;26371;56.992;23.912;2022-12-24T14:44:58;17.33;;;5.40;;
40152;SDS011;26371;56.992;23.912;2022-12-24T14:47:39;11.77;;;5.28;;
40152;SDS011;26371;56.992;23.912;2022-12-24T14:50:21;16.55;;;5.93;;
40152;SDS011;26371;56.992;23.912;2022-12-24T14:53:05;17.52;;;5.13;;
40152;SDS011;26371;56.992;23.912;2022-12-24T14:55:45;14.80;;;5.90;;
40152;SDS011;26371;56.992;23.912;2022-12-24T14:58:20;17.25;;;6.22;;
40152;SDS011;26371;56.992;23.912;2022-12-24T15:00:53;15.15;;;5.72;;
40152;SDS011;26371;56.992;23.912;2022-12-24T15:03:26;16.35;;;5.75;;
40152;SDS011;26371;56.992;23.912;2022-12-24T15:05:56;15.38;;;5.80;;
40152;SDS011;26371;56.992;23.912;2022-12-24T15:08:29;12.88;;;5.53;;
40152;SDS011;26371;56.992;23.912;2022-12-24T15:11:01;12.98;;;5.35;;
40152;SDS011;26371;56.992;23.912;2022-12-24T15:13:34;13.77;;;5.40;;
40152;SDS011;26371;56.992;23.912;2022-12-24T15:16:05;10.57;;;5.03;;
40152;SDS011;26371;56.992;23.912;2022-12-24T15:18:41;15.07;;;5.85;;
40152;SDS011;26371;56.992;23.912;2022-12-24T15:21:14;13.02;;;6.40;;
40152;SDS011;26371;56.992;23.912;2022-12-24T15:23:47;12.52;;;5.70;;
40152;SDS011;26371;56.992;23.912;2022-12-24T15:26:21;11.45;;;5.40;;
40152;SDS011;26371;56.992;23.912;2022-12-24T15:28:53;15.18;;;5.43;;
40152;SDS011;26371;56.992;23.912;2022-12-24T15:31:29;16.08;;;5.30;;
40152;SDS011;26371;56.992;23.912;2022-12-24T15:34:00;15.27;;;5.22;;